createdAt,value
2018-09-02T00:02:13.094Z,16.10
2018-09-02T00:04:42.304Z,16.20
2018-09-02T00:07:11.399Z,16.20
2018-09-02T00:09:40.653Z,16.10
2018-09-02T00:12:09.954Z,16.10
2018-09-02T00:14:39.213Z,16.00
2018-09-02T00:17:08.374Z,16.10
2018-09-02T00:19:37.661Z,16.20
2018-09-02T00:22:06.869Z,16.10
2018-09-02T00:24:36.261Z,16.10
2018-09-02T00:27:05.580Z,16.10
2018-09-02T00:29:34.948Z,16.10
2018-09-02T00:32:04.141Z,16.10
2018-09-02T00:34:33.245Z,16.10
2018-09-02T00:37:02.554Z,16.00
2018-09-02T00:39:31.729Z,16.00
2018-09-02T00:42:00.993Z,16.00
2018-09-02T00:44:30.189Z,16.00
2018-09-02T00:46:59.411Z,15.90
2018-09-02T00:49:28.677Z,16.00
2018-09-02T00:51:57.966Z,15.90
2018-09-02T00:54:27.467Z,16.00
2018-09-02T00:56:56.860Z,15.90
2018-09-02T00:59:26.110Z,15.90
2018-09-02T01:01:55.408Z,15.90
2018-09-02T01:04:24.658Z,15.80
2018-09-02T01:06:53.944Z,15.80
2018-09-02T01:09:23.126Z,15.90
2018-09-02T01:11:52.259Z,15.90
2018-09-02T01:14:21.391Z,15.90
2018-09-02T01:16:50.544Z,15.90
2018-09-02T01:19:19.891Z,15.90
2018-09-02T01:21:49.147Z,15.90
2018-09-02T01:24:18.333Z,15.90
2018-09-02T01:26:47.626Z,15.90
2018-09-02T01:29:16.703Z,15.90
2018-09-02T01:31:46.842Z,15.80
2018-09-02T01:34:16.131Z,15.80
2018-09-02T01:36:45.336Z,15.80
2018-09-02T01:39:14.544Z,15.80
2018-09-02T01:41:43.838Z,15.80
2018-09-02T01:44:13.152Z,15.80
2018-09-02T01:46:42.426Z,15.80
2018-09-02T01:49:11.567Z,15.90
2018-09-02T01:51:40.854Z,15.90
2018-09-02T01:54:10.002Z,15.90
2018-09-02T01:56:39.367Z,15.90
2018-09-02T01:59:08.704Z,15.90
2018-09-02T02:01:37.745Z,15.90
2018-09-02T02:04:07.129Z,15.90
2018-09-02T02:06:36.769Z,15.90
2018-09-02T02:09:09.066Z,15.90
2018-09-02T02:11:38.211Z,15.90
2018-09-02T02:14:07.574Z,15.90
2018-09-02T02:16:36.934Z,15.90
2018-09-02T02:19:06.229Z,15.80
2018-09-02T02:21:35.546Z,15.80
2018-09-02T02:24:04.834Z,15.80
2018-09-02T02:26:34.122Z,15.80
2018-09-02T02:29:03.473Z,15.80
2018-09-02T02:31:32.598Z,15.80
2018-09-02T02:34:01.969Z,15.80
2018-09-02T02:36:31.217Z,15.80
2018-09-02T02:39:00.426Z,15.70
2018-09-02T02:41:29.522Z,15.70
2018-09-02T02:43:58.645Z,15.80
2018-09-02T02:46:27.855Z,15.80
2018-09-02T02:48:57.169Z,15.80
2018-09-02T02:51:26.461Z,15.80
2018-09-02T02:53:55.810Z,15.80
2018-09-02T02:56:25.033Z,15.80
2018-09-02T02:58:54.218Z,15.80
2018-09-02T03:01:23.510Z,15.80
2018-09-02T03:03:52.582Z,15.80
2018-09-02T03:06:21.721Z,15.80
2018-09-02T03:08:51.533Z,15.80
2018-09-02T03:11:20.810Z,15.80
2018-09-02T03:13:50.031Z,15.80
2018-09-02T03:16:19.183Z,15.80
2018-09-02T03:18:48.346Z,15.80
2018-09-02T03:21:17.613Z,15.80
2018-09-02T03:23:46.900Z,15.80
2018-09-02T03:26:16.212Z,15.80
2018-09-02T03:28:45.483Z,15.80
2018-09-02T03:31:14.742Z,15.80
2018-09-02T03:33:44.018Z,15.80
2018-09-02T03:36:13.315Z,15.80
2018-09-02T03:38:42.535Z,15.80
2018-09-02T03:41:11.850Z,15.80
2018-09-02T03:43:40.977Z,15.80
2018-09-02T03:46:10.195Z,15.80
2018-09-02T03:48:39.414Z,15.80
2018-09-02T03:51:08.625Z,15.70
2018-09-02T03:53:37.826Z,15.80
2018-09-02T03:56:07.110Z,15.70
2018-09-02T03:58:36.728Z,15.80
2018-09-02T04:01:06.311Z,15.80
2018-09-02T04:03:35.534Z,15.80
2018-09-02T04:06:05.159Z,15.80
2018-09-02T04:08:34.495Z,15.90
2018-09-02T04:11:03.698Z,15.80
2018-09-02T04:13:32.990Z,15.90
2018-09-02T04:16:02.670Z,15.80
2018-09-02T04:18:31.859Z,16.00
2018-09-02T04:21:01.030Z,16.00
2018-09-02T04:23:30.276Z,16.00
2018-09-02T04:25:59.491Z,16.00
2018-09-02T04:28:28.699Z,16.00
2018-09-02T04:30:58.013Z,16.00
2018-09-02T04:33:27.229Z,16.00
2018-09-02T04:35:56.618Z,16.00
2018-09-02T04:38:25.935Z,16.00
2018-09-02T04:40:55.122Z,16.00
2018-09-02T04:43:24.305Z,16.00
2018-09-02T04:45:53.574Z,16.10
2018-09-02T04:48:22.908Z,16.10
2018-09-02T04:50:52.173Z,16.10
2018-09-02T04:53:22.439Z,16.10
2018-09-02T04:55:51.650Z,16.10
2018-09-02T04:58:20.898Z,16.10
2018-09-02T05:00:50.074Z,16.10
2018-09-02T05:03:19.246Z,16.20
2018-09-02T05:05:48.626Z,16.10
2018-09-02T05:08:17.727Z,16.10
2018-09-02T05:10:46.895Z,16.10
2018-09-02T05:13:16.289Z,16.10
2018-09-02T05:15:45.581Z,16.10
2018-09-02T05:18:15.005Z,16.10
2018-09-02T05:20:44.271Z,16.10
2018-09-02T05:23:13.466Z,16.20
2018-09-02T05:25:43.014Z,16.30
2018-09-02T05:28:12.317Z,16.30
2018-09-02T05:30:41.561Z,16.30
2018-09-02T05:33:11.034Z,16.30
2018-09-02T05:35:40.218Z,16.40
2018-09-02T05:38:09.427Z,16.30
2018-09-02T05:40:38.493Z,16.40
2018-09-02T05:43:07.541Z,16.40
2018-09-02T05:45:36.938Z,16.40
2018-09-02T05:48:06.399Z,16.40
2018-09-02T05:50:35.575Z,16.40
2018-09-02T05:53:04.809Z,16.40
2018-09-02T05:55:34.124Z,16.50
2018-09-02T05:58:03.423Z,16.50
2018-09-02T06:00:32.701Z,16.60
2018-09-02T06:03:01.934Z,16.70
2018-09-02T06:05:31.573Z,16.70
2018-09-02T06:08:00.638Z,16.80
2018-09-02T06:10:29.823Z,16.80
2018-09-02T06:12:59.091Z,16.80
2018-09-02T06:15:28.363Z,16.80
2018-09-02T06:17:57.566Z,16.80
2018-09-02T06:20:26.791Z,16.80
2018-09-02T06:22:56.064Z,16.80
2018-09-02T06:25:25.174Z,16.80
2018-09-02T06:27:54.534Z,16.80
2018-09-02T06:30:23.821Z,16.80
2018-09-02T06:32:53.185Z,16.80
2018-09-02T06:35:22.364Z,16.80
2018-09-02T06:37:51.642Z,16.80
2018-09-02T06:40:20.911Z,16.90
2018-09-02T06:42:51.057Z,16.90
2018-09-02T06:45:20.442Z,17.00
2018-09-02T06:47:49.730Z,17.10
2018-09-02T06:50:19.005Z,17.10
2018-09-02T06:52:48.247Z,17.20
2018-09-02T06:55:17.867Z,17.30
2018-09-02T06:57:47.194Z,17.40
2018-09-02T07:00:17.099Z,17.50
2018-09-02T07:02:46.305Z,17.50
2018-09-02T07:05:15.557Z,17.60
2018-09-02T07:07:44.811Z,17.70
2018-09-02T07:10:14.066Z,17.70
2018-09-02T07:12:43.155Z,17.70
2018-09-02T07:15:12.519Z,17.70
2018-09-02T07:17:41.774Z,17.80
2018-09-02T07:20:11.127Z,17.90
2018-09-02T07:22:40.903Z,17.80
2018-09-02T07:25:10.005Z,18.00
2018-09-02T07:27:39.305Z,18.00
2018-09-02T07:30:08.430Z,18.00
2018-09-02T07:32:37.791Z,18.10
2018-09-02T07:35:07.151Z,18.10
2018-09-02T07:37:36.335Z,18.20
2018-09-02T07:40:05.569Z,18.30
2018-09-02T07:42:34.688Z,18.30
2018-09-02T07:45:03.926Z,18.30
2018-09-02T07:47:33.065Z,18.30
2018-09-02T07:50:02.246Z,18.20
2018-09-02T07:52:31.558Z,18.20
2018-09-02T07:55:01.102Z,18.20
2018-09-02T07:57:30.343Z,18.20
2018-09-02T07:59:59.669Z,18.30
2018-09-02T08:02:28.876Z,18.50
2018-09-02T08:04:58.247Z,18.90
2018-09-02T08:07:27.458Z,19.40
2018-09-02T08:09:56.595Z,19.90
2018-09-02T08:12:25.891Z,20.30
2018-09-02T08:14:55.971Z,20.30
2018-09-02T08:17:25.256Z,20.20
2018-09-02T08:19:54.638Z,20.20
2018-09-02T08:22:23.973Z,20.20
2018-09-02T08:24:53.473Z,20.20
2018-09-02T08:27:22.740Z,20.30
2018-09-02T08:29:52.188Z,20.30
2018-09-02T08:32:21.885Z,20.20
2018-09-02T08:34:51.112Z,20.20
2018-09-02T08:37:20.394Z,20.30
2018-09-02T08:39:49.686Z,20.40
2018-09-02T08:42:18.925Z,20.70
2018-09-02T08:44:48.054Z,21.00
2018-09-02T08:47:17.224Z,21.20
2018-09-02T08:49:46.434Z,21.30
2018-09-02T08:52:15.627Z,21.40
2018-09-02T08:54:44.998Z,21.40
2018-09-02T08:57:14.263Z,21.40
2018-09-02T08:59:43.566Z,21.50
2018-09-02T09:02:12.780Z,21.60
2018-09-02T09:04:41.962Z,21.50
2018-09-02T09:07:11.116Z,21.50
2018-09-02T09:09:40.335Z,21.40
2018-09-02T09:12:09.613Z,21.50
2018-09-02T09:14:38.946Z,21.40
2018-09-02T09:17:08.312Z,21.60
2018-09-02T09:19:37.255Z,21.60
2018-09-02T09:22:06.435Z,21.70
2018-09-02T09:24:35.639Z,21.90
2018-09-02T09:27:04.997Z,21.90
2018-09-02T09:29:34.191Z,21.90
2018-09-02T09:32:03.305Z,21.80
2018-09-02T09:34:32.329Z,21.70
2018-09-02T09:37:01.738Z,21.60
2018-09-02T09:39:30.870Z,21.50
2018-09-02T09:41:59.966Z,21.40
2018-09-02T09:44:29.231Z,21.30
2018-09-02T09:46:58.353Z,21.10
2018-09-02T09:49:27.473Z,20.90
2018-09-02T09:51:56.841Z,20.80
2018-09-02T09:54:26.142Z,20.70
2018-09-02T09:56:55.334Z,20.50
2018-09-02T09:59:24.526Z,20.30
2018-09-02T10:01:53.830Z,20.20
2018-09-02T10:04:23.090Z,20.00
2018-09-02T10:06:52.298Z,19.90
2018-09-02T10:09:21.567Z,19.70
2018-09-02T10:11:50.844Z,19.50
2018-09-02T10:14:19.973Z,19.30
2018-09-02T10:16:49.158Z,19.10
2018-09-02T10:19:18.599Z,18.90
2018-09-02T10:21:47.820Z,18.70
2018-09-02T10:24:17.010Z,18.40
2018-09-02T10:26:46.248Z,18.20
2018-09-02T10:29:15.509Z,18.00
2018-09-02T10:31:44.742Z,17.90
2018-09-02T10:34:14.035Z,17.70
2018-09-02T10:36:43.380Z,17.60
2018-09-02T10:39:12.635Z,17.50
2018-09-02T10:41:42.004Z,17.40
2018-09-02T10:44:11.230Z,17.30
2018-09-02T10:46:40.461Z,17.10
2018-09-02T10:49:09.681Z,17.00
2018-09-02T10:51:38.854Z,16.90
2018-09-02T10:54:08.765Z,16.80
2018-09-02T10:56:37.936Z,16.80
2018-09-02T10:59:07.279Z,16.70
2018-09-02T11:01:36.409Z,16.70
2018-09-02T11:04:05.736Z,16.70
2018-09-02T11:06:34.866Z,16.70
2018-09-02T11:09:04.275Z,16.70
2018-09-02T11:11:33.571Z,16.70
2018-09-02T11:14:02.914Z,16.70
2018-09-02T11:16:32.774Z,16.70
2018-09-02T11:19:02.143Z,16.70
2018-09-02T11:21:31.372Z,16.70
2018-09-02T11:24:00.596Z,16.70
2018-09-02T11:26:29.766Z,16.80
2018-09-02T11:28:59.010Z,16.80
2018-09-02T11:31:28.422Z,16.80
2018-09-02T11:33:58.610Z,16.80
2018-09-02T11:36:28.397Z,16.80
2018-09-02T11:38:57.688Z,16.80
2018-09-02T11:41:27.155Z,16.90
2018-09-02T11:43:56.391Z,16.90
2018-09-02T11:46:25.645Z,16.90
2018-09-02T11:48:54.813Z,16.80
2018-09-02T11:51:24.002Z,16.90
2018-09-02T11:53:53.193Z,17.00
2018-09-02T11:56:22.424Z,17.00
2018-09-02T11:58:51.794Z,16.90
2018-09-02T12:01:20.980Z,16.90
2018-09-02T12:03:50.805Z,16.90
2018-09-02T12:06:19.940Z,16.90
2018-09-02T12:08:49.231Z,16.80
2018-09-02T12:11:18.611Z,16.70
2018-09-02T12:13:47.965Z,16.60
2018-09-02T12:16:17.170Z,16.60
2018-09-02T12:18:46.389Z,16.60
2018-09-02T12:21:15.718Z,16.60
2018-09-02T12:23:45.074Z,16.60
2018-09-02T12:26:14.350Z,16.70
2018-09-02T12:28:43.732Z,16.70
2018-09-02T12:31:12.990Z,16.80
2018-09-02T12:33:42.347Z,16.80
2018-09-02T12:36:11.545Z,16.80
2018-09-02T12:38:40.817Z,16.90
2018-09-02T12:41:10.119Z,16.90
2018-09-02T12:43:39.474Z,17.00
2018-09-02T12:46:08.721Z,17.00
2018-09-02T12:48:38.017Z,17.00
2018-09-02T12:51:07.472Z,17.10
2018-09-02T12:53:36.707Z,17.10
2018-09-02T12:56:06.050Z,17.20
2018-09-02T12:58:35.336Z,17.30
2018-09-02T13:01:04.618Z,17.30
2018-09-02T13:03:33.868Z,17.40
2018-09-02T13:06:03.019Z,17.30
2018-09-02T13:08:32.374Z,17.30
2018-09-02T13:11:01.706Z,17.20
2018-09-02T13:13:30.936Z,17.20
2018-09-02T13:16:00.178Z,17.10
2018-09-02T13:18:29.358Z,16.90
2018-09-02T13:20:58.567Z,16.90
2018-09-02T13:23:27.673Z,16.80
2018-09-02T13:25:57.046Z,16.70
2018-09-02T13:28:26.260Z,16.60
2018-09-02T13:30:55.541Z,16.50
2018-09-02T13:33:24.758Z,16.40
2018-09-02T13:35:54.110Z,16.30
2018-09-02T13:38:23.500Z,16.30
2018-09-02T13:40:52.766Z,16.30
2018-09-02T13:43:22.367Z,16.30
2018-09-02T13:45:51.686Z,16.30
2018-09-02T13:48:21.071Z,16.30
2018-09-02T13:50:50.432Z,16.30
2018-09-02T13:53:19.721Z,16.30
2018-09-02T13:55:49.089Z,16.30
2018-09-02T13:58:18.299Z,16.30
2018-09-02T14:00:47.408Z,16.30
2018-09-02T14:03:17.229Z,16.30
2018-09-02T14:05:46.634Z,16.40
2018-09-02T14:08:15.762Z,16.30
2018-09-02T14:10:45.111Z,16.40
2018-09-02T14:13:14.283Z,16.40
2018-09-02T14:15:43.666Z,16.30
2018-09-02T14:18:13.197Z,16.30
2018-09-02T14:20:42.613Z,16.30
2018-09-02T14:23:12.137Z,16.30
2018-09-02T14:25:41.480Z,16.30
2018-09-02T14:28:10.740Z,16.30
2018-09-02T14:30:39.930Z,16.30
2018-09-02T14:33:09.242Z,16.40
2018-09-02T14:35:38.607Z,16.40
2018-09-02T14:38:07.921Z,16.50
2018-09-02T14:40:37.270Z,16.60
2018-09-02T14:43:06.798Z,16.70
2018-09-02T14:45:36.183Z,16.70
2018-09-02T14:48:05.592Z,16.70
2018-09-02T14:50:35.053Z,16.70
2018-09-02T14:53:04.395Z,16.80
2018-09-02T14:55:33.910Z,16.80
2018-09-02T14:58:03.330Z,16.80
2018-09-02T15:00:32.518Z,16.90
2018-09-02T15:03:01.760Z,16.90
2018-09-02T15:05:31.009Z,16.90
2018-09-02T15:08:00.296Z,17.00
2018-09-02T15:10:29.706Z,17.00
2018-09-02T15:12:59.015Z,17.10
2018-09-02T15:15:28.343Z,17.20
2018-09-02T15:17:57.559Z,17.10
2018-09-02T15:20:26.833Z,17.10
2018-09-02T15:22:56.050Z,17.10
2018-09-02T15:25:25.242Z,17.00
2018-09-02T15:27:54.494Z,17.10
2018-09-02T15:30:24.348Z,17.10
2018-09-02T15:32:53.742Z,17.10
2018-09-02T15:35:22.958Z,17.10
2018-09-02T15:37:52.162Z,17.20
2018-09-02T15:40:21.398Z,17.30
2018-09-02T15:42:50.729Z,17.30
2018-09-02T15:45:20.027Z,17.30
2018-09-02T15:47:49.410Z,17.40
2018-09-02T15:50:19.559Z,17.40
2018-09-02T15:52:48.826Z,17.40
2018-09-02T15:55:18.199Z,17.40
2018-09-02T15:57:47.468Z,17.50
2018-09-02T16:00:16.672Z,17.50
2018-09-02T16:02:45.970Z,17.60
2018-09-02T16:05:15.093Z,17.70
2018-09-02T16:07:44.285Z,17.70
2018-09-02T16:10:13.652Z,17.80
2018-09-02T16:12:42.822Z,17.80
2018-09-02T16:15:12.170Z,17.80
2018-09-02T16:17:41.482Z,17.90
2018-09-02T16:20:10.849Z,17.80
2018-09-02T16:22:40.142Z,17.90
2018-09-02T16:25:09.234Z,17.90
2018-09-02T16:27:38.512Z,17.80
2018-09-02T16:30:08.071Z,17.80
2018-09-02T16:32:37.378Z,17.80
2018-09-02T16:35:06.771Z,17.80
2018-09-02T16:37:36.264Z,17.80
2018-09-02T16:40:05.569Z,17.80
2018-09-02T16:42:34.864Z,17.80
2018-09-02T16:45:04.138Z,17.80
2018-09-02T16:47:33.390Z,17.70
2018-09-02T16:50:02.585Z,17.70
2018-09-02T16:52:31.803Z,17.70
2018-09-02T16:55:00.991Z,17.60
2018-09-02T16:57:30.269Z,17.60
2018-09-02T16:59:59.417Z,17.60
2018-09-02T17:02:28.661Z,17.50
2018-09-02T17:05:03.867Z,17.50
2018-09-02T17:07:33.217Z,17.50
2018-09-02T17:10:02.395Z,17.40
2018-09-02T17:12:31.817Z,17.40
2018-09-02T17:15:00.897Z,17.40
2018-09-02T17:17:30.142Z,17.40
2018-09-02T17:20:00.109Z,17.30
2018-09-02T17:22:29.545Z,17.30
2018-09-02T17:24:58.773Z,17.30
2018-09-02T17:27:28.002Z,17.30
2018-09-02T17:29:57.274Z,17.30
2018-09-02T17:32:27.175Z,17.30
2018-09-02T17:34:56.571Z,17.40
2018-09-02T17:37:25.852Z,17.30
2018-09-02T17:39:55.001Z,17.30
2018-09-02T17:42:24.337Z,17.30
2018-09-02T17:44:53.613Z,17.30
2018-09-02T17:47:22.697Z,17.30
2018-09-02T17:49:52.049Z,17.30
2018-09-02T17:52:21.441Z,17.30
2018-09-02T17:54:50.848Z,17.30
2018-09-02T17:57:20.076Z,17.30
2018-09-02T17:59:49.271Z,17.20
2018-09-02T18:02:18.612Z,17.20
2018-09-02T18:04:47.763Z,17.20
2018-09-02T18:07:17.208Z,17.20
2018-09-02T18:09:46.452Z,17.20
2018-09-02T18:12:15.752Z,17.20
2018-09-02T18:14:45.030Z,17.20
2018-09-02T18:17:14.394Z,17.20
2018-09-02T18:19:43.619Z,17.20
2018-09-02T18:22:12.851Z,17.20
2018-09-02T18:24:42.510Z,17.10
2018-09-02T18:27:11.732Z,17.20
2018-09-02T18:29:43.900Z,17.10
2018-09-02T18:32:13.784Z,17.10
2018-09-02T18:34:43.211Z,17.10
2018-09-02T18:37:12.494Z,17.10
2018-09-02T18:39:41.863Z,17.10
2018-09-02T18:42:11.147Z,17.10
2018-09-02T18:44:40.390Z,17.10
2018-09-02T18:47:09.630Z,17.10
2018-09-02T18:49:38.946Z,17.10
2018-09-02T18:52:08.420Z,17.10
2018-09-02T18:54:37.765Z,17.10
2018-09-02T18:57:07.348Z,17.10
2018-09-02T18:59:36.731Z,17.10
2018-09-02T19:02:06.219Z,17.10
2018-09-02T19:04:35.843Z,17.10
2018-09-02T19:07:05.647Z,17.10
2018-09-02T19:09:35.104Z,17.20
2018-09-02T19:12:05.263Z,17.20
2018-09-02T19:14:34.886Z,17.10
2018-09-02T19:17:04.455Z,17.20
2018-09-02T19:19:33.792Z,17.10
2018-09-02T19:22:03.362Z,17.20
2018-09-02T19:24:33.159Z,17.20
2018-09-02T19:27:02.506Z,17.10
2018-09-02T19:29:31.902Z,17.10
2018-09-02T19:32:01.201Z,17.10
2018-09-02T19:34:30.519Z,17.10
2018-09-02T19:36:59.801Z,17.10
2018-09-02T19:39:29.208Z,17.10
2018-09-02T19:41:58.529Z,17.10
2018-09-02T19:44:27.895Z,17.10
2018-09-02T19:46:57.263Z,17.10
2018-09-02T19:49:26.574Z,17.10
2018-09-02T19:51:55.833Z,17.10
2018-09-02T19:54:25.149Z,17.10
2018-09-02T19:56:54.372Z,17.20
2018-09-02T19:59:23.512Z,17.10
2018-09-02T20:01:52.993Z,17.10
2018-09-02T20:04:22.200Z,17.10
2018-09-02T20:06:51.594Z,17.10
2018-09-02T20:09:20.929Z,17.10
2018-09-02T20:11:50.232Z,17.10
2018-09-02T20:14:19.515Z,17.10
2018-09-02T20:16:48.791Z,17.10
2018-09-02T20:19:18.102Z,17.00
2018-09-02T20:21:48.323Z,17.00
2018-09-02T20:24:17.751Z,17.00
2018-09-02T20:26:47.073Z,17.00
2018-09-02T20:29:16.315Z,17.00
2018-09-02T20:31:46.061Z,16.90
2018-09-02T20:34:15.376Z,16.90
2018-09-02T20:36:44.674Z,16.80
2018-09-02T20:39:13.889Z,16.80
2018-09-02T20:41:43.160Z,16.90
2018-09-02T20:44:12.406Z,16.90
2018-09-02T20:46:41.789Z,16.80
2018-09-02T20:49:10.982Z,16.80
2018-09-02T20:51:40.388Z,16.80
2018-09-02T20:54:09.726Z,16.80
2018-09-02T20:56:39.942Z,16.90
2018-09-02T20:59:09.112Z,16.90
2018-09-02T21:01:38.442Z,16.90
2018-09-02T21:04:07.858Z,16.90
2018-09-02T21:06:37.145Z,16.90
2018-09-02T21:09:10.351Z,16.90
2018-09-02T21:11:39.800Z,16.90
2018-09-02T21:14:09.239Z,16.90
2018-09-02T21:16:38.503Z,16.80
2018-09-02T21:19:07.761Z,16.80
2018-09-02T21:21:37.099Z,16.80
2018-09-02T21:24:06.510Z,16.70
2018-09-02T21:26:36.008Z,16.70
2018-09-02T21:29:05.351Z,16.70
2018-09-02T21:31:34.582Z,16.70
2018-09-02T21:34:03.782Z,16.70
2018-09-02T21:36:32.910Z,16.70
2018-09-02T21:39:02.161Z,16.70
2018-09-02T21:41:31.338Z,16.70
2018-09-02T21:44:00.718Z,16.70
2018-09-02T21:46:30.063Z,16.60
2018-09-02T21:48:59.343Z,16.70
2018-09-02T21:51:28.953Z,16.60
2018-09-02T21:53:58.081Z,16.60
2018-09-02T21:56:27.274Z,16.60
2018-09-02T21:58:56.493Z,16.70
2018-09-02T22:01:25.779Z,16.70
2018-09-02T22:03:55.018Z,16.70
2018-09-02T22:06:24.309Z,16.70
2018-09-02T22:08:53.381Z,16.80
2018-09-02T22:11:22.549Z,16.80
2018-09-02T22:13:51.924Z,16.90
2018-09-02T22:16:21.209Z,16.80
2018-09-02T22:18:50.566Z,16.90
2018-09-02T22:21:19.742Z,16.90
2018-09-02T22:23:49.098Z,17.00
2018-09-02T22:26:18.341Z,17.00
2018-09-02T22:28:47.715Z,17.00
2018-09-02T22:31:17.007Z,17.10
2018-09-02T22:33:46.238Z,17.10
2018-09-02T22:36:15.375Z,17.10
2018-09-02T22:38:44.653Z,17.10
2018-09-02T22:41:14.172Z,17.10
2018-09-02T22:43:43.810Z,17.10
2018-09-02T22:46:14.187Z,17.10
2018-09-02T22:48:43.497Z,17.00
2018-09-02T22:51:12.680Z,17.00
2018-09-02T22:53:42.247Z,17.00
2018-09-02T22:56:11.697Z,16.90
2018-09-02T22:58:41.018Z,16.80
2018-09-02T23:01:10.322Z,16.80
2018-09-02T23:03:39.334Z,16.60
2018-09-02T23:06:08.662Z,16.60
2018-09-02T23:08:37.886Z,16.50
2018-09-02T23:11:07.203Z,16.40
2018-09-02T23:13:36.537Z,16.30
2018-09-02T23:16:05.868Z,16.30
2018-09-02T23:18:35.047Z,16.20
2018-09-02T23:21:04.349Z,16.20
2018-09-02T23:23:34.587Z,16.20
2018-09-02T23:26:03.866Z,16.20
2018-09-02T23:28:33.335Z,16.10
2018-09-02T23:31:02.710Z,16.00
2018-09-02T23:33:31.957Z,15.90
2018-09-02T23:36:01.141Z,15.90
2018-09-02T23:38:30.245Z,15.90
2018-09-02T23:41:00.116Z,15.90
2018-09-02T23:43:29.446Z,16.00
2018-09-02T23:45:58.783Z,15.90
2018-09-02T23:48:27.990Z,16.00
2018-09-02T23:50:57.330Z,16.00
2018-09-02T23:53:26.526Z,15.90
2018-09-02T23:55:55.714Z,15.90
2018-09-02T23:58:24.897Z,15.90
